Terminal Aerodrome Forecast
Issued by NWS

Home | Current Version | Previous Version | Text Only | Print | Product List | Glossary On
Versions: 1 2 3 4 5 6 7 8 9 10 11 12 13 14 15
080
FTUS42 KMHX 232340
TAFISO
TAF
KISO 232340Z 2400/2424 05012KT P6SM OVC008
     FM240600 04010KT P6SM VCSH OVC007
     FM241400 07011KT 3SM -SHRA OVC015
     FM241900 10012G20KT 3SM SHRA OVC015
      AMD LTD TO CLD VIS AND WIND=

USA.gov is the U.S. government's official web portal to all federal, state and local government web resources and services.